createdAt,value
2022-08-17T00:00:34.561Z,9.43
2022-08-17T00:03:09.973Z,8.43
2022-08-17T00:05:41.064Z,8.73
2022-08-17T00:08:10.411Z,8.98
2022-08-17T00:10:38.997Z,9.70
2022-08-17T00:13:11.103Z,9.13
2022-08-17T00:15:39.531Z,7.03
2022-08-17T00:19:06.178Z,9.23
2022-08-17T00:20:58.935Z,7.80
2022-08-17T00:23:28.090Z,7.38
2022-08-17T00:25:56.659Z,7.72
2022-08-17T00:28:25.205Z,7.72
2022-08-17T00:30:54.214Z,10.82
2022-08-17T00:33:31.370Z,6.53
2022-08-17T00:36:00.569Z,7.80
2022-08-17T00:38:30.391Z,8.95
2022-08-17T00:41:00.770Z,8.98
2022-08-17T00:43:32.344Z,8.27
2022-08-17T00:46:01.316Z,8.35
2022-08-17T00:48:31.179Z,6.50
2022-08-17T00:51:03.397Z,8.63
2022-08-17T00:53:32.684Z,9.32
2022-08-17T00:56:01.842Z,9.00
2022-08-17T00:58:35.911Z,8.90
2022-08-17T01:01:12.372Z,7.30
2022-08-17T01:03:51.214Z,12.57
2022-08-17T01:06:19.718Z,8.50
2022-08-17T01:08:48.299Z,11.80
2022-08-17T01:11:26.007Z,6.97
2022-08-17T01:13:54.415Z,8.38
2022-08-17T01:16:31.273Z,10.25
2022-08-17T01:19:02.647Z,7.82
2022-08-17T01:21:34.558Z,7.63
2022-08-17T01:24:04.492Z,10.40
2022-08-17T01:26:34.124Z,9.00
2022-08-17T01:29:03.394Z,8.23
2022-08-17T01:31:33.235Z,11.80
2022-08-17T01:34:03.301Z,7.65
2022-08-17T01:36:31.793Z,10.48
2022-08-17T01:39:00.789Z,9.15
2022-08-17T01:41:30.754Z,7.88
2022-08-17T01:44:00.978Z,10.00
2022-08-17T01:46:35.334Z,9.63
2022-08-17T01:49:07.174Z,8.35
2022-08-17T01:51:35.546Z,9.95
2022-08-17T01:54:06.077Z,9.40
2022-08-17T01:56:37.058Z,7.38
2022-08-17T01:59:05.458Z,8.55
2022-08-17T02:01:34.878Z,7.95
2022-08-17T02:04:04.133Z,8.73
2022-08-17T02:06:52.697Z,7.03
2022-08-17T02:09:23.297Z,8.55
2022-08-17T02:11:58.081Z,7.82
2022-08-17T02:14:28.605Z,8.98
2022-08-17T02:16:57.190Z,9.93
2022-08-17T02:19:25.576Z,10.43
2022-08-17T02:21:54.766Z,14.93
2022-08-17T02:24:58.975Z,9.30
2022-08-17T02:27:14.783Z,8.98
2022-08-17T02:29:43.144Z,10.40
2022-08-17T02:32:20.641Z,12.07
2022-08-17T02:34:56.357Z,7.43
2022-08-17T02:37:25.530Z,7.30
2022-08-17T02:39:54.131Z,8.73
2022-08-17T02:42:28.524Z,8.57
2022-08-17T02:45:02.994Z,15.10
2022-08-17T02:47:31.966Z,10.00
2022-08-17T02:50:00.352Z,10.77
2022-08-17T02:52:43.775Z,8.43
2022-08-17T02:55:13.805Z,7.72
2022-08-17T02:57:43.730Z,8.77
2022-08-17T03:00:13.654Z,13.43
2022-08-17T03:02:42.470Z,7.45
2022-08-17T03:05:11.823Z,8.82
2022-08-17T03:07:40.185Z,11.00
2022-08-17T03:10:09.447Z,9.73
2022-08-17T03:12:38.921Z,9.32
2022-08-17T03:15:10.326Z,10.35
2022-08-17T03:17:38.696Z,9.32
2022-08-17T03:20:07.751Z,10.13
2022-08-17T03:22:38.466Z,10.38
2022-08-17T03:25:10.763Z,10.18
2022-08-17T03:27:39.686Z,10.43
2022-08-17T03:30:14.923Z,10.57
2022-08-17T03:32:46.140Z,9.23
2022-08-17T03:35:16.073Z,10.40
2022-08-17T03:37:47.485Z,12.55
2022-08-17T03:40:36.971Z,9.02
2022-08-17T03:43:13.876Z,11.52
2022-08-17T03:46:06.436Z,12.13
2022-08-17T03:49:12.712Z,8.32
2022-08-17T03:51:58.572Z,9.38
2022-08-17T03:54:44.815Z,11.90
2022-08-17T03:57:16.592Z,11.18
2022-08-17T03:59:45.342Z,10.32
2022-08-17T04:02:20.055Z,10.88
2022-08-17T04:04:50.897Z,9.23
2022-08-17T04:07:19.725Z,9.48
2022-08-17T04:09:48.340Z,7.25
2022-08-17T04:12:17.211Z,10.50
2022-08-17T04:14:53.783Z,11.27
2022-08-17T04:17:25.714Z,11.18
2022-08-17T04:19:54.336Z,11.40
2022-08-17T04:22:31.794Z,9.40
2022-08-17T04:25:02.376Z,10.00
2022-08-17T04:27:30.778Z,11.10
2022-08-17T04:29:59.538Z,11.07
2022-08-17T04:33:03.989Z,14.15
2022-08-17T04:35:24.837Z,8.93
2022-08-17T04:37:53.385Z,12.98
2022-08-17T04:40:40.074Z,10.55
2022-08-17T04:43:09.285Z,9.95
2022-08-17T04:45:40.710Z,11.20
2022-08-17T04:48:32.220Z,10.20
2022-08-17T04:51:07.429Z,14.52
2022-08-17T04:53:35.838Z,19.58
2022-08-17T04:56:04.315Z,14.48
2022-08-17T04:58:32.691Z,14.60
2022-08-17T05:01:01.579Z,10.50
2022-08-17T05:03:31.939Z,12.75
2022-08-17T05:06:00.395Z,9.45
2022-08-17T05:08:31.787Z,9.05
2022-08-17T05:11:00.302Z,9.60
2022-08-17T05:13:29.667Z,9.88
2022-08-17T05:15:58.856Z,12.45
2022-08-17T05:18:27.663Z,11.52
2022-08-17T05:20:57.952Z,12.85
2022-08-17T05:23:27.350Z,10.23
2022-08-17T05:26:06.308Z,10.50
2022-08-17T05:28:39.423Z,12.27
2022-08-17T05:31:08.383Z,12.32
2022-08-17T05:33:41.489Z,9.80
2022-08-17T05:36:42.633Z,11.35
2022-08-17T05:39:07.016Z,12.15
2022-08-17T05:41:35.430Z,11.63
2022-08-17T05:44:05.558Z,10.05
2022-08-17T05:46:36.475Z,11.90
2022-08-17T05:49:07.911Z,12.88
2022-08-17T05:51:45.637Z,10.18
2022-08-17T05:54:23.091Z,10.13
2022-08-17T05:57:09.107Z,11.00
2022-08-17T05:59:42.139Z,8.48
2022-08-17T06:02:17.400Z,9.45
2022-08-17T06:04:53.238Z,13.15
2022-08-17T06:07:26.934Z,11.50
2022-08-17T06:09:57.895Z,10.70
2022-08-17T06:12:35.852Z,9.02
2022-08-17T06:15:10.800Z,11.45
2022-08-17T06:17:40.173Z,9.23
2022-08-17T06:20:10.601Z,9.88
2022-08-17T06:22:44.499Z,9.32
2022-08-17T06:25:15.823Z,11.77
2022-08-17T06:27:47.438Z,11.23
2022-08-17T06:30:24.715Z,9.88
2022-08-17T06:32:53.834Z,13.77
2022-08-17T06:35:27.785Z,10.57
2022-08-17T06:38:05.598Z,13.60
2022-08-17T06:40:51.952Z,15.10
2022-08-17T06:43:32.649Z,9.35
2022-08-17T06:46:04.857Z,8.50
2022-08-17T06:48:36.753Z,8.00
2022-08-17T06:51:09.132Z,10.10
2022-08-17T06:53:42.233Z,8.88
2022-08-17T06:56:11.828Z,10.07
2022-08-17T06:58:41.033Z,9.38
2022-08-17T07:01:13.017Z,7.70
2022-08-17T07:03:43.490Z,9.35
2022-08-17T07:06:14.376Z,11.30
2022-08-17T07:08:49.852Z,15.45
2022-08-17T07:11:21.009Z,13.75
2022-08-17T07:13:52.388Z,8.73
2022-08-17T07:16:22.021Z,9.05
2022-08-17T07:18:53.257Z,15.13
2022-08-17T07:21:31.234Z,10.10
2022-08-17T07:24:29.610Z,12.40
2022-08-17T07:27:06.438Z,12.48
2022-08-17T07:29:38.884Z,9.45
2022-08-17T07:32:07.338Z,8.68
2022-08-17T07:34:59.174Z,9.13
2022-08-17T07:37:27.597Z,8.85
2022-08-17T07:40:15.550Z,9.88
2022-08-17T07:42:46.679Z,7.00
2022-08-17T07:45:30.315Z,8.00
2022-08-17T07:48:16.359Z,8.70
2022-08-17T07:50:49.623Z,6.80
2022-08-17T07:53:20.350Z,12.63
2022-08-17T07:55:50.469Z,7.00
2022-08-17T07:58:19.934Z,5.47
2022-08-17T08:00:48.685Z,6.47
2022-08-17T08:03:23.684Z,8.35
2022-08-17T08:05:57.613Z,7.68
2022-08-17T08:08:28.230Z,6.88
2022-08-17T08:11:02.939Z,5.28
2022-08-17T08:13:32.266Z,6.47
2022-08-17T08:16:15.666Z,6.57
2022-08-17T08:18:55.283Z,9.27
2022-08-17T08:21:30.062Z,8.18
2022-08-17T08:24:01.328Z,5.78
2022-08-17T08:26:35.554Z,7.63
2022-08-17T08:29:10.046Z,7.88
2022-08-17T08:31:45.794Z,9.85
2022-08-17T08:34:53.395Z,7.85
2022-08-17T08:37:17.694Z,7.80
2022-08-17T08:39:51.691Z,10.80
2022-08-17T08:42:26.037Z,10.07
2022-08-17T08:45:04.455Z,10.30
2022-08-17T08:47:45.069Z,8.13
2022-08-17T08:50:37.524Z,8.40
2022-08-17T08:53:13.157Z,20.58
2022-08-17T08:55:49.219Z,14.63
2022-08-17T08:58:32.068Z,12.57
2022-08-17T09:01:16.967Z,10.60
2022-08-17T09:03:54.243Z,9.73
2022-08-17T09:06:39.049Z,7.20
2022-08-17T09:09:15.058Z,6.85
2022-08-17T09:12:01.302Z,6.53
2022-08-17T09:14:46.484Z,4.25
2022-08-17T09:17:18.550Z,5.75
2022-08-17T09:19:48.927Z,3.90
2022-08-17T09:22:23.666Z,6.47
2022-08-17T09:24:57.196Z,6.10
2022-08-17T09:27:29.404Z,8.48
2022-08-17T09:30:02.581Z,3.75
2022-08-17T09:32:34.666Z,4.63
2022-08-17T09:35:05.620Z,4.75
2022-08-17T09:37:37.542Z,7.88
2022-08-17T09:40:10.918Z,4.15
2022-08-17T09:42:42.671Z,4.18
2022-08-17T09:45:18.534Z,8.70
2022-08-17T09:47:49.862Z,4.88
2022-08-17T09:50:55.591Z,5.40
2022-08-17T09:53:10.495Z,7.45
2022-08-17T09:55:57.942Z,4.85
2022-08-17T09:58:29.117Z,6.47
2022-08-17T10:01:03.520Z,9.65
2022-08-17T10:03:37.134Z,8.43
2022-08-17T10:06:09.104Z,5.18
2022-08-17T10:08:40.492Z,8.57
2022-08-17T10:11:14.663Z,6.47
2022-08-17T10:13:47.153Z,6.70
2022-08-17T10:16:27.340Z,11.45
2022-08-17T10:19:02.786Z,5.60
2022-08-17T10:21:50.968Z,6.35
2022-08-17T10:25:21.386Z,4.43
2022-08-17T10:27:48.805Z,3.83
2022-08-17T10:30:18.591Z,5.78
2022-08-17T10:32:50.807Z,7.75
2022-08-17T10:35:36.849Z,8.25
2022-08-17T10:38:12.070Z,5.07
2022-08-17T10:40:46.763Z,7.07
2022-08-17T10:43:22.813Z,3.10
2022-08-17T10:46:10.469Z,4.93
2022-08-17T10:48:47.590Z,4.28
2022-08-17T10:51:38.007Z,8.63
2022-08-17T10:54:06.687Z,5.65
2022-08-17T10:56:43.034Z,3.40
2022-08-17T10:59:11.496Z,4.90
2022-08-17T11:02:00.365Z,6.55
2022-08-17T11:04:38.628Z,7.50
2022-08-17T11:07:10.610Z,5.35
2022-08-17T11:09:45.823Z,5.70
2022-08-17T11:12:21.070Z,5.43
2022-08-17T11:15:02.572Z,5.15
2022-08-17T11:17:43.087Z,3.15
2022-08-17T11:20:29.933Z,5.07
2022-08-17T11:23:10.822Z,4.53
2022-08-17T11:25:41.042Z,5.25
2022-08-17T11:28:11.229Z,6.15
2022-08-17T11:30:44.818Z,6.43
2022-08-17T11:33:32.491Z,4.30
2022-08-17T11:36:12.484Z,4.07
2022-08-17T11:38:46.186Z,4.70
2022-08-17T11:41:20.064Z,4.43
2022-08-17T11:44:06.389Z,8.95
2022-08-17T11:47:03.263Z,7.03
2022-08-17T11:50:02.581Z,5.53
2022-08-17T11:52:41.039Z,5.75
2022-08-17T11:55:34.701Z,5.13
2022-08-17T11:58:04.646Z,3.08
2022-08-17T12:00:51.422Z,4.20
2022-08-17T12:03:26.479Z,3.97
2022-08-17T12:06:03.219Z,6.15
2022-08-17T12:08:33.979Z,6.68
2022-08-17T12:11:05.220Z,5.75
2022-08-17T12:13:39.598Z,4.50
2022-08-17T12:16:09.935Z,3.33
2022-08-17T12:18:39.634Z,5.63
2022-08-17T12:21:15.764Z,5.57
2022-08-17T12:23:52.234Z,4.93
2022-08-17T12:26:21.480Z,5.55
2022-08-17T12:28:50.718Z,4.28
2022-08-17T12:31:24.909Z,3.20
2022-08-17T12:33:53.493Z,3.17
2022-08-17T12:36:24.515Z,3.55
2022-08-17T12:38:57.264Z,3.50
2022-08-17T12:41:34.426Z,8.27
2022-08-17T12:44:03.928Z,4.40
2022-08-17T12:46:34.859Z,3.95
2022-08-17T12:49:13.863Z,4.65
2022-08-17T12:51:46.797Z,6.25
2022-08-17T12:54:23.946Z,4.65
2022-08-17T12:56:52.560Z,3.33
2022-08-17T12:59:30.199Z,5.10
2022-08-17T13:01:59.573Z,5.93
2022-08-17T13:04:29.712Z,3.92
2022-08-17T13:07:00.098Z,5.90
2022-08-17T13:09:35.857Z,5.85
2022-08-17T13:12:09.227Z,7.70
2022-08-17T13:14:37.907Z,6.70
2022-08-17T13:17:12.677Z,11.30
2022-08-17T13:19:48.991Z,7.50
2022-08-17T13:22:18.339Z,8.15
2022-08-17T13:24:54.413Z,5.65
2022-08-17T13:27:24.093Z,5.95
2022-08-17T13:29:53.919Z,4.55
2022-08-17T13:32:24.045Z,5.25
2022-08-17T13:35:13.197Z,9.02
2022-08-17T13:37:57.943Z,6.35
2022-08-17T13:40:33.121Z,7.43
2022-08-17T13:43:03.394Z,7.07
2022-08-17T13:45:39.661Z,7.28
2022-08-17T13:48:11.112Z,5.40
2022-08-17T13:50:43.920Z,7.57
2022-08-17T13:53:20.822Z,7.13
2022-08-17T13:55:51.708Z,4.88
2022-08-17T13:58:24.627Z,3.70
2022-08-17T14:00:53.028Z,4.55
2022-08-17T14:03:22.187Z,4.85
2022-08-17T14:05:51.482Z,6.30
2022-08-17T14:08:20.753Z,5.85
2022-08-17T14:10:58.094Z,6.32
2022-08-17T14:13:26.566Z,4.18
2022-08-17T14:15:56.914Z,4.03
2022-08-17T14:18:55.426Z,3.92
2022-08-17T14:21:14.588Z,4.75
2022-08-17T14:23:54.226Z,5.22
2022-08-17T14:26:24.686Z,6.28
2022-08-17T14:28:56.214Z,8.43
2022-08-17T14:31:27.493Z,7.97
2022-08-17T14:33:56.093Z,7.75
2022-08-17T14:36:24.527Z,5.03
2022-08-17T14:38:53.192Z,5.40
2022-08-17T14:41:23.462Z,4.88
2022-08-17T14:43:53.875Z,6.13
2022-08-17T14:46:22.627Z,4.93
2022-08-17T14:48:57.194Z,6.20
2022-08-17T14:51:27.566Z,7.68
2022-08-17T14:53:57.184Z,6.40
2022-08-17T14:56:25.894Z,3.75
2022-08-17T14:58:56.236Z,4.25
2022-08-17T15:01:25.693Z,6.00
2022-08-17T15:03:54.614Z,5.93
2022-08-17T15:06:24.752Z,4.32
2022-08-17T15:08:54.171Z,4.95
2022-08-17T15:11:22.690Z,4.53
2022-08-17T15:13:52.404Z,16.23
2022-08-17T15:16:23.596Z,4.30
2022-08-17T15:18:52.719Z,5.57
2022-08-17T15:21:21.311Z,4.07
2022-08-17T15:23:49.651Z,7.43
2022-08-17T15:26:20.667Z,4.78
2022-08-17T15:28:54.498Z,7.05
2022-08-17T15:31:32.296Z,4.45
2022-08-17T15:34:01.335Z,5.78
2022-08-17T15:36:30.004Z,4.28
2022-08-17T15:38:58.792Z,5.68
2022-08-17T15:41:28.208Z,5.93
2022-08-17T15:43:57.335Z,3.80
2022-08-17T15:46:27.682Z,3.53
2022-08-17T15:48:58.742Z,9.75
2022-08-17T15:51:28.511Z,11.90
2022-08-17T15:53:57.976Z,7.72
2022-08-17T15:56:26.748Z,7.10
2022-08-17T15:58:55.478Z,3.42
2022-08-17T16:02:33.657Z,4.75
2022-08-17T16:04:30.337Z,8.07
2022-08-17T16:07:00.001Z,4.00
2022-08-17T16:09:28.486Z,6.65
2022-08-17T16:11:56.919Z,4.47
2022-08-17T16:14:32.382Z,3.35
2022-08-17T16:17:03.928Z,5.10
2022-08-17T16:19:34.396Z,6.72
2022-08-17T16:22:02.987Z,6.72
2022-08-17T16:24:31.472Z,3.75
2022-08-17T16:27:00.362Z,5.10
2022-08-17T16:29:28.976Z,5.38
2022-08-17T16:31:58.563Z,6.28
2022-08-17T16:34:27.090Z,4.38
2022-08-17T16:36:56.817Z,4.53
2022-08-17T16:39:26.759Z,3.83
2022-08-17T16:41:55.932Z,8.57
2022-08-17T16:44:24.812Z,3.25
2022-08-17T16:46:53.431Z,5.03
2022-08-17T16:49:35.658Z,6.05
2022-08-17T16:52:10.062Z,5.55
2022-08-17T16:54:40.589Z,9.15
2022-08-17T16:57:09.262Z,7.97
2022-08-17T16:59:39.642Z,7.97
2022-08-17T17:02:12.786Z,7.20
2022-08-17T17:04:44.383Z,7.95
2022-08-17T17:07:20.415Z,7.35
2022-08-17T17:09:52.567Z,7.70
2022-08-17T17:13:00.933Z,5.75
2022-08-17T17:15:10.067Z,8.05
2022-08-17T17:17:39.800Z,6.20
2022-08-17T17:20:10.736Z,7.15
2022-08-17T17:22:46.046Z,6.25
2022-08-17T17:25:17.063Z,7.88
2022-08-17T17:27:52.510Z,8.80
2022-08-17T17:30:24.117Z,6.78
2022-08-17T17:32:54.241Z,8.20
2022-08-17T17:35:25.719Z,10.63
2022-08-17T17:37:57.320Z,10.70
2022-08-17T17:40:28.514Z,7.68
2022-08-17T17:43:14.384Z,8.02
2022-08-17T17:45:50.777Z,8.18
2022-08-17T17:48:19.161Z,9.73
2022-08-17T17:50:54.513Z,12.10
2022-08-17T17:53:41.632Z,7.68
2022-08-17T17:56:18.819Z,9.77
2022-08-17T17:59:06.402Z,7.55
2022-08-17T18:01:46.187Z,10.18
2022-08-17T18:04:21.385Z,7.57
2022-08-17T18:06:57.699Z,10.10
2022-08-17T18:09:34.016Z,6.68
2022-08-17T18:12:09.801Z,5.45
2022-08-17T18:14:48.110Z,7.03
2022-08-17T18:17:18.027Z,12.20
2022-08-17T18:19:47.086Z,9.73
2022-08-17T18:22:17.705Z,9.40
2022-08-17T18:24:48.972Z,11.55
2022-08-17T18:27:23.404Z,12.10
2022-08-17T18:29:52.856Z,10.32
2022-08-17T18:32:32.395Z,7.93
2022-08-17T18:35:02.257Z,5.90
2022-08-17T18:37:36.084Z,6.47
2022-08-17T18:40:30.006Z,8.90
2022-08-17T18:43:00.826Z,6.38
2022-08-17T18:45:33.392Z,8.55
2022-08-17T18:48:02.538Z,9.45
2022-08-17T18:50:36.569Z,6.20
2022-08-17T18:53:21.084Z,8.05
2022-08-17T18:56:16.792Z,9.07
2022-08-17T18:58:52.132Z,8.38
2022-08-17T19:01:41.703Z,10.18
2022-08-17T19:04:13.962Z,7.65
2022-08-17T19:06:42.499Z,11.65
2022-08-17T19:09:28.515Z,10.77
2022-08-17T19:11:59.134Z,9.32
2022-08-17T19:14:28.223Z,8.85
2022-08-17T19:17:02.311Z,5.50
2022-08-17T19:19:35.308Z,11.27
2022-08-17T19:22:09.819Z,16.90
2022-08-17T19:24:47.363Z,6.15
2022-08-17T19:27:20.903Z,8.98
2022-08-17T19:29:53.654Z,4.35
2022-08-17T19:32:23.209Z,10.57
2022-08-17T19:34:52.238Z,8.52
2022-08-17T19:37:27.080Z,8.05
2022-08-17T19:40:00.951Z,13.63
2022-08-17T19:42:34.371Z,8.77
2022-08-17T19:45:05.335Z,9.98
2022-08-17T19:48:02.656Z,14.95
2022-08-17T19:50:38.435Z,8.85
2022-08-17T19:53:11.533Z,10.50
2022-08-17T19:55:48.489Z,10.68
2022-08-17T19:58:25.917Z,7.90
2022-08-17T20:00:55.309Z,6.18
2022-08-17T20:03:27.406Z,9.80
2022-08-17T20:06:14.183Z,8.40
2022-08-17T20:08:45.022Z,9.25
2022-08-17T20:11:17.802Z,6.03
2022-08-17T20:13:51.050Z,7.43
2022-08-17T20:16:21.049Z,12.10
2022-08-17T20:18:52.436Z,12.32
2022-08-17T20:21:24.704Z,6.10
2022-08-17T20:23:54.553Z,6.57
2022-08-17T20:26:26.407Z,6.43
2022-08-17T20:29:37.206Z,7.05
2022-08-17T20:32:14.886Z,5.45
2022-08-17T20:34:46.749Z,11.70
2022-08-17T20:37:27.814Z,9.77
2022-08-17T20:40:11.192Z,9.15
2022-08-17T20:42:39.808Z,9.63
2022-08-17T20:45:23.388Z,10.77
2022-08-17T20:48:22.237Z,6.75
2022-08-17T20:50:46.886Z,5.28
2022-08-17T20:53:36.587Z,5.90
2022-08-17T20:56:05.229Z,8.85
2022-08-17T20:58:47.227Z,10.32
2022-08-17T21:01:20.331Z,10.05
2022-08-17T21:03:52.172Z,10.43
2022-08-17T21:06:22.922Z,11.88
2022-08-17T21:08:54.295Z,11.95
2022-08-17T21:11:57.001Z,10.45
2022-08-17T21:14:36.490Z,12.45
2022-08-17T21:17:22.181Z,13.38
2022-08-17T21:20:10.848Z,13.80
2022-08-17T21:22:47.666Z,14.63
2022-08-17T21:25:22.824Z,15.63
2022-08-17T21:28:00.472Z,13.95
2022-08-17T21:30:58.404Z,12.25
2022-08-17T21:33:28.553Z,7.97
2022-08-17T21:36:12.191Z,10.40
2022-08-17T21:38:44.071Z,12.85
2022-08-17T21:41:21.178Z,12.25
2022-08-17T21:43:52.087Z,9.27
2022-08-17T21:46:26.104Z,11.15
2022-08-17T21:48:57.247Z,13.48
2022-08-17T21:51:28.109Z,11.13
2022-08-17T21:53:58.967Z,10.40
2022-08-17T21:56:30.420Z,13.82
2022-08-17T21:58:59.998Z,15.73
2022-08-17T22:01:30.112Z,11.80
2022-08-17T22:04:00.489Z,12.15
2022-08-17T22:06:30.712Z,13.88
2022-08-17T22:09:02.298Z,15.25
2022-08-17T22:11:31.566Z,13.88
2022-08-17T22:14:05.767Z,13.68
2022-08-17T22:16:34.865Z,15.70
2022-08-17T22:19:03.451Z,15.18
2022-08-17T22:21:31.824Z,16.08
2022-08-17T22:24:06.504Z,17.17
2022-08-17T22:26:53.889Z,11.75
2022-08-17T22:29:42.583Z,19.05
2022-08-17T22:32:11.240Z,14.73
2022-08-17T22:34:39.625Z,15.32
2022-08-17T22:37:27.333Z,15.35
2022-08-17T22:40:00.737Z,13.88
2022-08-17T22:42:29.150Z,23.13
2022-08-17T22:44:57.500Z,14.05
2022-08-17T22:47:30.662Z,12.30
2022-08-17T22:50:00.657Z,15.50
2022-08-17T22:52:33.933Z,17.63
2022-08-17T22:55:23.769Z,14.85
2022-08-17T22:58:10.133Z,11.68
2022-08-17T23:00:40.482Z,13.13
2022-08-17T23:03:10.910Z,14.65
2022-08-17T23:05:39.887Z,14.98
2022-08-17T23:08:09.460Z,17.55
2022-08-17T23:10:39.411Z,13.85
2022-08-17T23:13:11.809Z,15.93
2022-08-17T23:15:40.954Z,16.13
2022-08-17T23:18:09.367Z,15.43
2022-08-17T23:20:38.793Z,14.55
2022-08-17T23:23:07.768Z,13.30
2022-08-17T23:25:36.803Z,18.05
2022-08-17T23:28:07.344Z,15.93
2022-08-17T23:30:37.223Z,14.98
2022-08-17T23:33:07.055Z,14.95
2022-08-17T23:35:38.933Z,13.95
2022-08-17T23:38:09.748Z,16.65
2022-08-17T23:40:39.697Z,12.10
2022-08-17T23:43:24.676Z,11.63
2022-08-17T23:45:57.968Z,15.52
2022-08-17T23:48:35.003Z,12.68
2022-08-17T23:51:05.831Z,14.25
2022-08-17T23:53:36.268Z,11.52
2022-08-17T23:56:09.437Z,14.73
2022-08-17T23:58:43.112Z,12.57
